Orenge 7 — JL6148 — position and weather

sailwx.info

Track history (hours):
 
Tides and Currents Weather Stations Pressure Air Temp Water Temp Dewpoint Dewpoint Depression Visibility Wind Speed Wind Dir Waves Ship Positions

Orenge 7

Last reported at 2017-Aug-17 15:14 UTC. Time now 2017-Aug-17 23:24 UTC.
Position N 34°33' E 134°45'.

Length 163 m; draft 4.9 m.

Type: Passenger vessel. MMSI: 431500186.

Date/timePositionNaut miles runAvg speedWind from/ knotsBaromVisibWave heightAir tempDewpointWater temp
2017-Aug-17 15:14N 34°33' E 134°45'818.8
2017-Aug-17 14:50N 34°36' E 134°54'617.6
2017-Aug-17 14:30N 34°37' E 135°01'816.9
2017-Aug-17 14:00N 34°36' E 135°11'918.0
2017-Aug-17 13:31N 34°37' E 135°21'4 7.2
2017-Aug-17 13:00N 34°37' E 135°26'0 0.0
2017-Aug-17 12:26N 34°37' E 135°26'0 0.0
2017-Aug-17 11:56N 34°37' E 135°26'0 0.0
2017-Aug-17 11:20N 34°37' E 135°26'0 0.0
2017-Aug-17 10:50N 34°37' E 135°26'0 0.0
2017-Aug-17 10:20N 34°37' E 135°26'0 0.0
2017-Aug-17 09:56N 34°37' E 135°26'0 0.0
2017-Aug-17 09:26N 34°37' E 135°26'0 0.0
2017-Aug-17 08:44N 34°37' E 135°26'0 0.0
2017-Aug-17 08:26N 34°37' E 135°26'0 0.0
2017-Aug-17 07:56N 34°37' E 135°26'0 0.0
2017-Aug-17 06:08N 34°37' E 135°26'0 0.0
2017-Aug-17 05:56N 34°37' E 135°26'0 0.0
2017-Aug-17 05:26N 34°37' E 135°26'0 0.0
2017-Aug-17 04:56N 34°37' E 135°26'0 0.0
2017-Aug-17 04:26N 34°37' E 135°26'0 0.0
2017-Aug-17 03:56N 34°37' E 135°26'0 0.0
2017-Aug-17 03:20N 34°37' E 135°26'0 0.0
2017-Aug-17 02:44N 34°37' E 135°26'0 0.0
2017-Aug-17 02:26N 34°37' E 135°26'0 0.0
2017-Aug-17 01:56N 34°37' E 135°26'0 0.0
2017-Aug-17 01:26N 34°37' E 135°26'0 0.0
2017-Aug-17 00:50N 34°37' E 135°26'0 0.0
2017-Aug-17 00:20N 34°37' E 135°26'0 0.0
2017-Aug-16 23:56N 34°37' E 135°26'0 0.0
2017-Aug-16 22:26N 34°37' E 135°26'0 0.0
2017-Aug-16 21:56N 34°37' E 135°26'0 0.0
2017-Aug-16 21:26N 34°37' E 135°26'0 0.6
2017-Aug-16 21:00N 34°37' E 135°26'713.5
2017-Aug-16 20:30N 34°34' E 135°18'1019.2
2017-Aug-16 20:00N 34°33' E 135°06'816.8
2017-Aug-16 19:31N 34°36' E 134°57'11 0.4
2017-Aug-15 15:14N 34°32' E 134°44'618.9
2017-Aug-15 14:54N 34°35' E 134°51'818.4
2017-Aug-15 14:28N 34°38' E 134°60'816.6
2017-Aug-15 14:00N 34°36' E 135°09'917.7
2017-Aug-15 13:30N 34°37' E 135°20'510.0
2017-Aug-15 13:00N 34°37' E 135°26'0 0.0
2017-Aug-15 10:09N 34°37' E 135°26'0 0.0
2017-Aug-15 09:39N 34°37' E 135°26'0 0.0
2017-Aug-15 09:27N 34°37' E 135°26'0 0.0
2017-Aug-15 08:57N 34°37' E 135°26'0 0.0
2017-Aug-15 08:27N 34°37' E 135°26'0 0.0
2017-Aug-15 07:45N 34°37' E 135°26'0 0.0
2017-Aug-15 07:21N 34°37' E 135°26'0 0.0
2017-Aug-15 06:57N 34°37' E 135°26'0 0.0
2017-Aug-15 06:15N 34°37' E 135°26'0 0.0
2017-Aug-15 05:51N 34°37' E 135°26'0 0.0
2017-Aug-15 05:27N 34°37' E 135°26'0 0.0
2017-Aug-15 04:57N 34°37' E 135°26'0 0.0
2017-Aug-15 04:27N 34°37' E 135°26'0 0.0
2017-Aug-15 03:57N 34°37' E 135°26'0 0.0
2017-Aug-15 03:15N 34°37' E 135°26'0 0.0
2017-Aug-15 02:57N 34°37' E 135°26'0 0.0
2017-Aug-15 02:27N 34°37' E 135°26'0 0.0
2017-Aug-15 01:51N 34°37' E 135°26'0 0.0
2017-Aug-15 01:15N 34°37' E 135°26'0 0.0
2017-Aug-15 00:39N 34°37' E 135°26'0 0.0
2017-Aug-15 00:27N 34°37' E 135°26'0 0.0
2017-Aug-14 23:51N 34°37' E 135°26'0 0.0
2017-Aug-14 23:27N 34°37' E 135°26'0 0.0
2017-Aug-14 22:57N 34°37' E 135°26'0 0.0
2017-Aug-14 22:27N 34°37' E 135°26'0 0.0
2017-Aug-14 21:57N 34°37' E 135°26'0 0.0
2017-Aug-14 21:15N 34°37' E 135°26'0 0.4
2017-Aug-14 21:00N 34°37' E 135°26'612.3
2017-Aug-14 20:30N 34°36' E 135°19'918.8
2017-Aug-14 20:00N 34°35' E 135°07'918.4
2017-Aug-14 19:30N 34°36' E 134°56'7 0.3
2017-Aug-13 14:54N 34°34' E 134°47'820.6
2017-Aug-13 14:29N 34°37' E 134°57'919.4
2017-Aug-13 14:00N 34°36' E 135°08'918.6
2017-Aug-13 13:31N 34°37' E 135°19'510.9
2017-Aug-13 13:00N 34°37' E 135°26'0 0.0
2017-Aug-13 12:29N 34°37' E 135°26'0 0.0
2017-Aug-13 11:59N 34°37' E 135°26'0 0.0
2017-Aug-13 11:29N 34°37' E 135°26'0 0.0
2017-Aug-13 10:59N 34°37' E 135°26'0 0.0
2017-Aug-13 10:17N 34°37' E 135°26'0 0.0
2017-Aug-13 09:53N 34°37' E 135°26'0 0.0
2017-Aug-13 09:23N 34°37' E 135°26'0 0.0
2017-Aug-13 08:53N 34°37' E 135°26'0 0.0
2017-Aug-13 08:29N 34°37' E 135°26'0 0.0
2017-Aug-13 07:59N 34°37' E 135°26'0 0.0
2017-Aug-13 07:23N 34°37' E 135°26'0 0.0
2017-Aug-13 06:59N 34°37' E 135°26'0 0.0
2017-Aug-13 06:29N 34°37' E 135°26'0 0.0
2017-Aug-13 05:53N 34°37' E 135°26'0 0.0
2017-Aug-13 05:23N 34°37' E 135°26'0 0.0
2017-Aug-13 04:47N 34°37' E 135°26'0 0.0
2017-Aug-13 04:29N 34°37' E 135°26'0 0.0
2017-Aug-13 03:53N 34°37' E 135°26'0 0.0
2017-Aug-13 03:23N 34°37' E 135°26'0 0.0
2017-Aug-13 02:59N 34°37' E 135°26'0 0.0
2017-Aug-13 02:23N 34°37' E 135°26'0 0.0
2017-Aug-13 01:59N 34°37' E 135°26'0 0.0
2017-Aug-13 01:29N 34°37' E 135°26'0 0.0
2017-Aug-13 00:59N 34°37' E 135°26'0 0.0
2017-Aug-13 00:29N 34°37' E 135°26'0 0.0
2017-Aug-12 23:59N 34°37' E 135°26'0 0.0
2017-Aug-12 23:29N 34°37' E 135°26'0 0.0
2017-Aug-12 22:53N 34°37' E 135°26'0 0.0
2017-Aug-12 22:29N 34°37' E 135°26'0 0.0
2017-Aug-12 21:59N 34°37' E 135°26'0 0.0
2017-Aug-12 21:29N 34°37' E 135°26'0 0.1
2017-Aug-12 21:00N 34°37' E 135°26'611.4
2017-Aug-12 20:30N 34°36' E 135°19'816.1
2017-Aug-12 20:00N 34°35' E 135°09'1019.0
2017-Aug-12 19:30N 34°37' E 134°58'1020.1
2017-Aug-12 19:00N 34°32' E 134°47'5 0.2
2017-Aug-11 14:43N 34°35' E 134°52'421.2
2017-Aug-11 14:30N 34°37' E 134°57'1919.4
2017-Aug-11 13:30N 34°37' E 135°20'5 9.4
2017-Aug-11 13:00N 34°37' E 135°26'0 0.0
2017-Aug-11 12:29N 34°37' E 135°26'0 0.0
2017-Aug-11 11:41N 34°37' E 135°26'0 0.0
2017-Aug-11 11:29N 34°37' E 135°26'0 0.0
2017-Aug-11 10:59N 34°37' E 135°26'0 0.0
2017-Aug-11 10:17N 34°37' E 135°26'0 0.0
2017-Aug-11 09:59N 34°37' E 135°26'0 0.0
2017-Aug-11 09:29N 34°37' E 135°26'0 0.0
2017-Aug-11 08:59N 34°37' E 135°26'0 0.0
2017-Aug-11 08:29N 34°37' E 135°26'0 0.0
2017-Aug-11 07:53N 34°37' E 135°26'0 0.0
2017-Aug-11 07:29N 34°37' E 135°26'0 0.0
2017-Aug-11 06:59N 34°37' E 135°26'0 0.0
2017-Aug-11 06:29N 34°37' E 135°26'0 0.0
2017-Aug-11 05:59N 34°37' E 135°26'0 0.0
2017-Aug-11 05:29N 34°37' E 135°26'0 0.0
2017-Aug-11 04:59N 34°37' E 135°26'0 0.0
2017-Aug-11 04:29N 34°37' E 135°26'0 0.0
2017-Aug-11 03:59N 34°37' E 135°26'0 0.0
2017-Aug-11 03:29N 34°37' E 135°26'0 0.0
2017-Aug-11 02:53N 34°37' E 135°26'0 0.0
2017-Aug-11 02:29N 34°37' E 135°26'0 0.0
2017-Aug-11 01:41N 34°37' E 135°26'0 0.0
2017-Aug-11 01:29N 34°37' E 135°26'0 0.0
2017-Aug-11 00:59N 34°37' E 135°26'0 0.0
2017-Aug-11 00:29N 34°37' E 135°26'0 0.0
2017-Aug-10 23:59N 34°37' E 135°26'0 0.0
2017-Aug-10 23:29N 34°37' E 135°26'0 0.0
2017-Aug-10 22:59N 34°37' E 135°26'0 0.0
2017-Aug-10 22:29N 34°37' E 135°26'0 0.0
2017-Aug-10 21:53N 34°37' E 135°26'0 0.0
2017-Aug-10 21:17N 34°37' E 135°26'0 0.5
2017-Aug-10 21:00N 34°37' E 135°26'612.5
2017-Aug-10 20:30N 34°36' E 135°18'917.8
2017-Aug-10 20:00N 34°34' E 135°08'918.6
2017-Aug-10 19:30N 34°37' E 134°57'3 0.1
2017-Aug-09 14:38N 34°36' E 134°53'321.6
2017-Aug-09 14:30N 34°37' E 134°56'1019.4
2017-Aug-09 14:00N 34°36' E 135°08'1019.4
2017-Aug-09 13:30N 34°37' E 135°20'510.2
2017-Aug-09 13:00N 34°37' E 135°26'0 0.0
2017-Aug-09 12:19N 34°37' E 135°26'0 0.0
2017-Aug-09 11:55N 34°37' E 135°26'0 0.0
2017-Aug-09 11:25N 34°37' E 135°26'0 0.0
2017-Aug-09 10:55N 34°37' E 135°26'0 0.0
2017-Aug-09 10:25N 34°37' E 135°26'0 0.0
2017-Aug-09 09:55N 34°37' E 135°26'0 0.0
2017-Aug-09 09:25N 34°37' E 135°26'0 0.0
2017-Aug-09 08:55N 34°37' E 135°26'0 0.0
2017-Aug-09 08:25N 34°37' E 135°26'0 0.0
2017-Aug-09 07:55N 34°37' E 135°26'0 0.0
2017-Aug-09 07:25N 34°37' E 135°26'0 0.0
2017-Aug-09 06:55N 34°37' E 135°26'0 0.0
2017-Aug-09 06:13N 34°37' E 135°26'0 0.0
2017-Aug-09 05:43N 34°37' E 135°26'0 0.0
2017-Aug-09 05:07N 34°37' E 135°26'0 0.0
2017-Aug-09 04:49N 34°37' E 135°26'0 0.0
2017-Aug-09 04:19N 34°37' E 135°26'0 0.0
2017-Aug-09 03:55N 34°37' E 135°26'0 0.0
2017-Aug-09 03:13N 34°37' E 135°26'0 0.0
2017-Aug-09 02:49N 34°37' E 135°26'0 0.0
2017-Aug-09 02:13N 34°37' E 135°26'0 0.0
2017-Aug-09 01:55N 34°37' E 135°26'0 0.0
2017-Aug-09 01:25N 34°37' E 135°26'0 0.0
2017-Aug-09 00:37N 34°37' E 135°26'0 0.0
2017-Aug-09 00:25N 34°37' E 135°26'0 0.0
2017-Aug-08 23:55N 34°37' E 135°26'0 0.0
2017-Aug-08 23:19N 34°37' E 135°26'0 0.0
2017-Aug-08 22:43N 34°37' E 135°26'0 0.0
2017-Aug-08 22:25N 34°37' E 135°26'0 0.0
2017-Aug-08 21:55N 34°37' E 135°26'0 0.0
2017-Aug-08 21:25N 34°37' E 135°26'0 0.5
2017-Aug-08 21:00N 34°37' E 135°26'612.1
2017-Aug-08 20:30N 34°35' E 135°19'917.9
2017-Aug-08 20:00N 34°34' E 135°08'918.4
2017-Aug-08 19:30N 34°36' E 134°57'1019.3
2017-Aug-08 19:00N 34°32' E 134°47'  
Track history (hours):
 
Tides and Currents Weather Stations Pressure Air Temp Water Temp Dewpoint Dewpoint Depression Visibility Wind Speed Wind Dir Waves Ship Positions

Orenge 7

Last reported at 2017-Aug-17 15:14 UTC. Time now 2017-Aug-17 23:24 UTC.
Position N 34°33' E 134°45'.

Length 163 m; draft 4.9 m.

Type: Passenger vessel. MMSI: 431500186.

Date/timePositionNaut miles runAvg speedWind from/ knotsBaromVisibWave heightAir tempDewpointWater temp
2017-Aug-17 15:14N 34°33' E 134°45'818.8
2017-Aug-17 14:50N 34°36' E 134°54'617.6
2017-Aug-17 14:30N 34°37' E 135°01'816.9
2017-Aug-17 14:00N 34°36' E 135°11'918.0
2017-Aug-17 13:31N 34°37' E 135°21'4 7.2
2017-Aug-17 13:00N 34°37' E 135°26'0 0.0
2017-Aug-17 12:26N 34°37' E 135°26'0 0.0
2017-Aug-17 11:56N 34°37' E 135°26'0 0.0
2017-Aug-17 11:20N 34°37' E 135°26'0 0.0
2017-Aug-17 10:50N 34°37' E 135°26'0 0.0
2017-Aug-17 10:20N 34°37' E 135°26'0 0.0
2017-Aug-17 09:56N 34°37' E 135°26'0 0.0
2017-Aug-17 09:26N 34°37' E 135°26'0 0.0
2017-Aug-17 08:44N 34°37' E 135°26'0 0.0
2017-Aug-17 08:26N 34°37' E 135°26'0 0.0
2017-Aug-17 07:56N 34°37' E 135°26'0 0.0
2017-Aug-17 06:08N 34°37' E 135°26'0 0.0
2017-Aug-17 05:56N 34°37' E 135°26'0 0.0
2017-Aug-17 05:26N 34°37' E 135°26'0 0.0
2017-Aug-17 04:56N 34°37' E 135°26'0 0.0
2017-Aug-17 04:26N 34°37' E 135°26'0 0.0
2017-Aug-17 03:56N 34°37' E 135°26'0 0.0
2017-Aug-17 03:20N 34°37' E 135°26'0 0.0
2017-Aug-17 02:44N 34°37' E 135°26'0 0.0
2017-Aug-17 02:26N 34°37' E 135°26'0 0.0
2017-Aug-17 01:56N 34°37' E 135°26'0 0.0
2017-Aug-17 01:26N 34°37' E 135°26'0 0.0
2017-Aug-17 00:50N 34°37' E 135°26'0 0.0
2017-Aug-17 00:20N 34°37' E 135°26'0 0.0
2017-Aug-16 23:56N 34°37' E 135°26'0 0.0
2017-Aug-16 22:26N 34°37' E 135°26'0 0.0
2017-Aug-16 21:56N 34°37' E 135°26'0 0.0
2017-Aug-16 21:26N 34°37' E 135°26'0 0.6
2017-Aug-16 21:00N 34°37' E 135°26'713.5
2017-Aug-16 20:30N 34°34' E 135°18'1019.2
2017-Aug-16 20:00N 34°33' E 135°06'816.8
2017-Aug-16 19:31N 34°36' E 134°57'11 0.4
2017-Aug-15 15:14N 34°32' E 134°44'618.9
2017-Aug-15 14:54N 34°35' E 134°51'818.4
2017-Aug-15 14:28N 34°38' E 134°60'816.6
2017-Aug-15 14:00N 34°36' E 135°09'917.7
2017-Aug-15 13:30N 34°37' E 135°20'510.0
2017-Aug-15 13:00N 34°37' E 135°26'0 0.0
2017-Aug-15 10:09N 34°37' E 135°26'0 0.0
2017-Aug-15 09:39N 34°37' E 135°26'0 0.0
2017-Aug-15 09:27N 34°37' E 135°26'0 0.0
2017-Aug-15 08:57N 34°37' E 135°26'0 0.0
2017-Aug-15 08:27N 34°37' E 135°26'0 0.0
2017-Aug-15 07:45N 34°37' E 135°26'0 0.0
2017-Aug-15 07:21N 34°37' E 135°26'0 0.0
2017-Aug-15 06:57N 34°37' E 135°26'0 0.0
2017-Aug-15 06:15N 34°37' E 135°26'0 0.0
2017-Aug-15 05:51N 34°37' E 135°26'0 0.0
2017-Aug-15 05:27N 34°37' E 135°26'0 0.0
2017-Aug-15 04:57N 34°37' E 135°26'0 0.0
2017-Aug-15 04:27N 34°37' E 135°26'0 0.0
2017-Aug-15 03:57N 34°37' E 135°26'0 0.0
2017-Aug-15 03:15N 34°37' E 135°26'0 0.0
2017-Aug-15 02:57N 34°37' E 135°26'0 0.0
2017-Aug-15 02:27N 34°37' E 135°26'0 0.0
2017-Aug-15 01:51N 34°37' E 135°26'0 0.0
2017-Aug-15 01:15N 34°37' E 135°26'0 0.0
2017-Aug-15 00:39N 34°37' E 135°26'0 0.0
2017-Aug-15 00:27N 34°37' E 135°26'0 0.0
2017-Aug-14 23:51N 34°37' E 135°26'0 0.0
2017-Aug-14 23:27N 34°37' E 135°26'0 0.0
2017-Aug-14 22:57N 34°37' E 135°26'0 0.0
2017-Aug-14 22:27N 34°37' E 135°26'0 0.0
2017-Aug-14 21:57N 34°37' E 135°26'0 0.0
2017-Aug-14 21:15N 34°37' E 135°26'0 0.4
2017-Aug-14 21:00N 34°37' E 135°26'612.3
2017-Aug-14 20:30N 34°36' E 135°19'918.8
2017-Aug-14 20:00N 34°35' E 135°07'918.4
2017-Aug-14 19:30N 34°36' E 134°56'7 0.3
2017-Aug-13 14:54N 34°34' E 134°47'820.6
2017-Aug-13 14:29N 34°37' E 134°57'919.4
2017-Aug-13 14:00N 34°36' E 135°08'918.6
2017-Aug-13 13:31N 34°37' E 135°19'510.9
2017-Aug-13 13:00N 34°37' E 135°26'0 0.0
2017-Aug-13 12:29N 34°37' E 135°26'0 0.0
2017-Aug-13 11:59N 34°37' E 135°26'0 0.0
2017-Aug-13 11:29N 34°37' E 135°26'0 0.0
2017-Aug-13 10:59N 34°37' E 135°26'0 0.0
2017-Aug-13 10:17N 34°37' E 135°26'0 0.0
2017-Aug-13 09:53N 34°37' E 135°26'0 0.0
2017-Aug-13 09:23N 34°37' E 135°26'0 0.0
2017-Aug-13 08:53N 34°37' E 135°26'0 0.0
2017-Aug-13 08:29N 34°37' E 135°26'0 0.0
2017-Aug-13 07:59N 34°37' E 135°26'0 0.0
2017-Aug-13 07:23N 34°37' E 135°26'0 0.0
2017-Aug-13 06:59N 34°37' E 135°26'0 0.0
2017-Aug-13 06:29N 34°37' E 135°26'0 0.0
2017-Aug-13 05:53N 34°37' E 135°26'0 0.0
2017-Aug-13 05:23N 34°37' E 135°26'0 0.0
2017-Aug-13 04:47N 34°37' E 135°26'0 0.0
2017-Aug-13 04:29N 34°37' E 135°26'0 0.0
2017-Aug-13 03:53N 34°37' E 135°26'0 0.0
2017-Aug-13 03:23N 34°37' E 135°26'0 0.0
2017-Aug-13 02:59N 34°37' E 135°26'0 0.0
2017-Aug-13 02:23N 34°37' E 135°26'0 0.0
2017-Aug-13 01:59N 34°37' E 135°26'0 0.0
2017-Aug-13 01:29N 34°37' E 135°26'0 0.0
2017-Aug-13 00:59N 34°37' E 135°26'0 0.0
2017-Aug-13 00:29N 34°37' E 135°26'0 0.0
2017-Aug-12 23:59N 34°37' E 135°26'0 0.0
2017-Aug-12 23:29N 34°37' E 135°26'0 0.0
2017-Aug-12 22:53N 34°37' E 135°26'0 0.0
2017-Aug-12 22:29N 34°37' E 135°26'0 0.0
2017-Aug-12 21:59N 34°37' E 135°26'0 0.0
2017-Aug-12 21:29N 34°37' E 135°26'0 0.1
2017-Aug-12 21:00N 34°37' E 135°26'611.4
2017-Aug-12 20:30N 34°36' E 135°19'816.1
2017-Aug-12 20:00N 34°35' E 135°09'1019.0
2017-Aug-12 19:30N 34°37' E 134°58'1020.1
2017-Aug-12 19:00N 34°32' E 134°47'5 0.2
2017-Aug-11 14:43N 34°35' E 134°52'421.2
2017-Aug-11 14:30N 34°37' E 134°57'1919.4
2017-Aug-11 13:30N 34°37' E 135°20'5 9.4
2017-Aug-11 13:00N 34°37' E 135°26'0 0.0
2017-Aug-11 12:29N 34°37' E 135°26'0 0.0
2017-Aug-11 11:41N 34°37' E 135°26'0 0.0
2017-Aug-11 11:29N 34°37' E 135°26'0 0.0
2017-Aug-11 10:59N 34°37' E 135°26'0 0.0
2017-Aug-11 10:17N 34°37' E 135°26'0 0.0
2017-Aug-11 09:59N 34°37' E 135°26'0 0.0
2017-Aug-11 09:29N 34°37' E 135°26'0 0.0
2017-Aug-11 08:59N 34°37' E 135°26'0 0.0
2017-Aug-11 08:29N 34°37' E 135°26'0 0.0
2017-Aug-11 07:53N 34°37' E 135°26'0 0.0
2017-Aug-11 07:29N 34°37' E 135°26'0 0.0
2017-Aug-11 06:59N 34°37' E 135°26'0 0.0
2017-Aug-11 06:29N 34°37' E 135°26'0 0.0
2017-Aug-11 05:59N 34°37' E 135°26'0 0.0
2017-Aug-11 05:29N 34°37' E 135°26'0 0.0
2017-Aug-11 04:59N 34°37' E 135°26'0 0.0
2017-Aug-11 04:29N 34°37' E 135°26'0 0.0
2017-Aug-11 03:59N 34°37' E 135°26'0 0.0
2017-Aug-11 03:29N 34°37' E 135°26'0 0.0
2017-Aug-11 02:53N 34°37' E 135°26'0 0.0
2017-Aug-11 02:29N 34°37' E 135°26'0 0.0
2017-Aug-11 01:41N 34°37' E 135°26'0 0.0
2017-Aug-11 01:29N 34°37' E 135°26'0 0.0
2017-Aug-11 00:59N 34°37' E 135°26'0 0.0
2017-Aug-11 00:29N 34°37' E 135°26'0 0.0
2017-Aug-10 23:59N 34°37' E 135°26'0 0.0
2017-Aug-10 23:29N 34°37' E 135°26'0 0.0
2017-Aug-10 22:59N 34°37' E 135°26'0 0.0
2017-Aug-10 22:29N 34°37' E 135°26'0 0.0
2017-Aug-10 21:53N 34°37' E 135°26'0 0.0
2017-Aug-10 21:17N 34°37' E 135°26'0 0.5
2017-Aug-10 21:00N 34°37' E 135°26'612.5
2017-Aug-10 20:30N 34°36' E 135°18'917.8
2017-Aug-10 20:00N 34°34' E 135°08'918.6
2017-Aug-10 19:30N 34°37' E 134°57'3 0.1
2017-Aug-09 14:38N 34°36' E 134°53'321.6
2017-Aug-09 14:30N 34°37' E 134°56'1019.4
2017-Aug-09 14:00N 34°36' E 135°08'1019.4
2017-Aug-09 13:30N 34°37' E 135°20'510.2
2017-Aug-09 13:00N 34°37' E 135°26'0 0.0
2017-Aug-09 12:19N 34°37' E 135°26'0 0.0
2017-Aug-09 11:55N 34°37' E 135°26'0 0.0
2017-Aug-09 11:25N 34°37' E 135°26'0 0.0
2017-Aug-09 10:55N 34°37' E 135°26'0 0.0
2017-Aug-09 10:25N 34°37' E 135°26'0 0.0
2017-Aug-09 09:55N 34°37' E 135°26'0 0.0
2017-Aug-09 09:25N 34°37' E 135°26'0 0.0
2017-Aug-09 08:55N 34°37' E 135°26'0 0.0
2017-Aug-09 08:25N 34°37' E 135°26'0 0.0
2017-Aug-09 07:55N 34°37' E 135°26'0 0.0
2017-Aug-09 07:25N 34°37' E 135°26'0 0.0
2017-Aug-09 06:55N 34°37' E 135°26'0 0.0
2017-Aug-09 06:13N 34°37' E 135°26'0 0.0
2017-Aug-09 05:43N 34°37' E 135°26'0 0.0
2017-Aug-09 05:07N 34°37' E 135°26'0 0.0
2017-Aug-09 04:49N 34°37' E 135°26'0 0.0
2017-Aug-09 04:19N 34°37' E 135°26'0 0.0
2017-Aug-09 03:55N 34°37' E 135°26'0 0.0
2017-Aug-09 03:13N 34°37' E 135°26'0 0.0
2017-Aug-09 02:49N 34°37' E 135°26'0 0.0
2017-Aug-09 02:13N 34°37' E 135°26'0 0.0
2017-Aug-09 01:55N 34°37' E 135°26'0 0.0
2017-Aug-09 01:25N 34°37' E 135°26'0 0.0
2017-Aug-09 00:37N 34°37' E 135°26'0 0.0
2017-Aug-09 00:25N 34°37' E 135°26'0 0.0
2017-Aug-08 23:55N 34°37' E 135°26'0 0.0
2017-Aug-08 23:19N 34°37' E 135°26'0 0.0
2017-Aug-08 22:43N 34°37' E 135°26'0 0.0
2017-Aug-08 22:25N 34°37' E 135°26'0 0.0
2017-Aug-08 21:55N 34°37' E 135°26'0 0.0
2017-Aug-08 21:25N 34°37' E 135°26'0 0.5
2017-Aug-08 21:00N 34°37' E 135°26'612.1
2017-Aug-08 20:30N 34°35' E 135°19'917.9
2017-Aug-08 20:00N 34°34' E 135°08'918.4
2017-Aug-08 19:30N 34°36' E 134°57'1019.3
2017-Aug-08 19:00N 34°32' E 134°47'  

Dump ship's entire track history